sensor_id;sensor_type;location;lat;lon;timestamp;P1;durP1;ratioP1;P2;durP2;ratioP2
6566;SDS011;3317;43.994;22.878;2023-07-31T00:02:01;14.13;;;11.60;;
6566;SDS011;3317;43.994;22.878;2023-07-31T00:04:28;13.10;;;11.70;;
6566;SDS011;3317;43.994;22.878;2023-07-31T00:06:57;12.47;;;11.20;;
6566;SDS011;3317;43.994;22.878;2023-07-31T00:09:24;12.10;;;10.87;;
6566;SDS011;3317;43.994;22.878;2023-07-31T00:11:51;12.23;;;10.43;;
6566;SDS011;3317;43.994;22.878;2023-07-31T00:14:17;13.30;;;12.00;;
6566;SDS011;3317;43.994;22.878;2023-07-31T00:16:44;15.67;;;10.07;;
6566;SDS011;3317;43.994;22.878;2023-07-31T00:19:11;12.50;;;11.30;;
6566;SDS011;3317;43.994;22.878;2023-07-31T00:21:38;13.90;;;11.47;;
6566;SDS011;3317;43.994;22.878;2023-07-31T00:24:06;12.87;;;11.50;;
6566;SDS011;3317;43.994;22.878;2023-07-31T00:26:33;11.77;;;10.23;;
6566;SDS011;3317;43.994;22.878;2023-07-31T00:29:00;11.50;;;10.30;;
6566;SDS011;3317;43.994;22.878;2023-07-31T00:31:27;11.80;;;10.57;;
6566;SDS011;3317;43.994;22.878;2023-07-31T00:33:54;13.57;;;12.03;;
6566;SDS011;3317;43.994;22.878;2023-07-31T00:36:21;12.67;;;11.10;;
6566;SDS011;3317;43.994;22.878;2023-07-31T00:38:48;14.10;;;10.90;;
6566;SDS011;3317;43.994;22.878;2023-07-31T00:41:16;12.73;;;11.43;;
6566;SDS011;3317;43.994;22.878;2023-07-31T00:43:43;12.07;;;10.80;;
6566;SDS011;3317;43.994;22.878;2023-07-31T00:46:10;13.80;;;11.57;;
6566;SDS011;3317;43.994;22.878;2023-07-31T00:48:38;13.00;;;11.70;;
6566;SDS011;3317;43.994;22.878;2023-07-31T00:51:06;12.47;;;10.70;;
6566;SDS011;3317;43.994;22.878;2023-07-31T00:53:34;12.27;;;10.90;;
6566;SDS011;3317;43.994;22.878;2023-07-31T00:56:01;13.93;;;11.03;;
6566;SDS011;3317;43.994;22.878;2023-07-31T00:58:31;13.30;;;11.87;;
6566;SDS011;3317;43.994;22.878;2023-07-31T01:00:58;13.40;;;11.97;;
6566;SDS011;3317;43.994;22.878;2023-07-31T01:03:25;12.90;;;11.50;;
6566;SDS011;3317;43.994;22.878;2023-07-31T01:05:54;12.60;;;11.30;;
6566;SDS011;3317;43.994;22.878;2023-07-31T01:08:32;14.00;;;12.37;;
6566;SDS011;3317;43.994;22.878;2023-07-31T01:11:07;12.37;;;11.10;;
6566;SDS011;3317;43.994;22.878;2023-07-31T01:13:45;13.77;;;11.67;;
6566;SDS011;3317;43.994;22.878;2023-07-31T01:16:12;13.30;;;11.70;;
6566;SDS011;3317;43.994;22.878;2023-07-31T01:18:39;13.87;;;12.30;;
6566;SDS011;3317;43.994;22.878;2023-07-31T01:21:11;14.50;;;13.00;;
6566;SDS011;3317;43.994;22.878;2023-07-31T01:26:52;13.93;;;12.10;;
6566;SDS011;3317;43.994;22.878;2023-07-31T01:29:25;14.43;;;12.70;;
6566;SDS011;3317;43.994;22.878;2023-07-31T01:31:59;15.60;;;13.90;;
6566;SDS011;3317;43.994;22.878;2023-07-31T01:34:29;14.63;;;13.13;;
6566;SDS011;3317;43.994;22.878;2023-07-31T01:36:56;15.33;;;13.70;;
6566;SDS011;3317;43.994;22.878;2023-07-31T01:39:24;13.30;;;11.93;;
6566;SDS011;3317;43.994;22.878;2023-07-31T01:41:52;17.20;;;14.50;;
6566;SDS011;3317;43.994;22.878;2023-07-31T01:44:19;17.63;;;13.70;;
6566;SDS011;3317;43.994;22.878;2023-07-31T01:46:46;15.80;;;13.70;;
6566;SDS011;3317;43.994;22.878;2023-07-31T01:49:13;14.10;;;12.60;;
6566;SDS011;3317;43.994;22.878;2023-07-31T01:51:40;14.90;;;13.37;;
6566;SDS011;3317;43.994;22.878;2023-07-31T01:54:06;16.43;;;14.63;;
6566;SDS011;3317;43.994;22.878;2023-07-31T01:56:33;16.77;;;14.20;;
6566;SDS011;3317;43.994;22.878;2023-07-31T01:59:02;14.63;;;13.10;;
6566;SDS011;3317;43.994;22.878;2023-07-31T02:01:29;14.87;;;13.27;;
6566;SDS011;3317;43.994;22.878;2023-07-31T02:03:55;15.90;;;14.07;;
6566;SDS011;3317;43.994;22.878;2023-07-31T02:06:23;14.67;;;13.17;;
6566;SDS011;3317;43.994;22.878;2023-07-31T02:08:49;17.87;;;13.97;;
6566;SDS011;3317;43.994;22.878;2023-07-31T02:11:17;14.70;;;12.93;;
6566;SDS011;3317;43.994;22.878;2023-07-31T02:13:45;13.27;;;11.87;;
6566;SDS011;3317;43.994;22.878;2023-07-31T02:16:14;14.50;;;12.70;;
6566;SDS011;3317;43.994;22.878;2023-07-31T02:18:41;16.40;;;12.43;;
6566;SDS011;3317;43.994;22.878;2023-07-31T02:21:08;16.80;;;13.57;;
6566;SDS011;3317;43.994;22.878;2023-07-31T02:23:34;15.43;;;12.90;;
6566;SDS011;3317;43.994;22.878;2023-07-31T02:26:01;15.80;;;12.00;;
6566;SDS011;3317;43.994;22.878;2023-07-31T02:28:28;14.03;;;12.17;;
6566;SDS011;3317;43.994;22.878;2023-07-31T02:30:55;13.67;;;12.00;;
6566;SDS011;3317;43.994;22.878;2023-07-31T02:33:27;15.60;;;12.40;;
6566;SDS011;3317;43.994;22.878;2023-07-31T02:35:54;13.27;;;11.93;;
6566;SDS011;3317;43.994;22.878;2023-07-31T02:38:21;13.07;;;10.80;;
6566;SDS011;3317;43.994;22.878;2023-07-31T02:40:48;12.30;;;11.00;;
6566;SDS011;3317;43.994;22.878;2023-07-31T02:43:15;16.00;;;11.60;;
6566;SDS011;3317;43.994;22.878;2023-07-31T02:45:41;13.77;;;10.87;;
6566;SDS011;3317;43.994;22.878;2023-07-31T02:48:08;15.40;;;10.87;;
6566;SDS011;3317;43.994;22.878;2023-07-31T02:50:37;12.17;;;10.87;;
6566;SDS011;3317;43.994;22.878;2023-07-31T02:53:04;11.10;;;10.00;;
6566;SDS011;3317;43.994;22.878;2023-07-31T02:55:30;13.93;;;10.90;;
6566;SDS011;3317;43.994;22.878;2023-07-31T02:57:57;11.90;;;10.60;;
6566;SDS011;3317;43.994;22.878;2023-07-31T03:00:24;12.20;;;10.90;;
6566;SDS011;3317;43.994;22.878;2023-07-31T03:02:51;11.97;;;9.90;;
6566;SDS011;3317;43.994;22.878;2023-07-31T03:05:18;19.00;;;9.97;;
6566;SDS011;3317;43.994;22.878;2023-07-31T03:07:47;11.83;;;10.20;;
6566;SDS011;3317;43.994;22.878;2023-07-31T03:10:13;12.60;;;10.40;;
6566;SDS011;3317;43.994;22.878;2023-07-31T03:12:41;11.30;;;9.57;;
6566;SDS011;3317;43.994;22.878;2023-07-31T03:15:08;14.40;;;10.53;;
6566;SDS011;3317;43.994;22.878;2023-07-31T03:17:35;10.90;;;9.80;;
6566;SDS011;3317;43.994;22.878;2023-07-31T03:20:03;12.87;;;10.20;;
6566;SDS011;3317;43.994;22.878;2023-07-31T03:22:30;14.90;;;8.80;;
6566;SDS011;3317;43.994;22.878;2023-07-31T03:24:58;10.37;;;9.10;;
6566;SDS011;3317;43.994;22.878;2023-07-31T03:27:25;9.50;;;8.17;;
6566;SDS011;3317;43.994;22.878;2023-07-31T03:29:52;9.77;;;8.67;;
6566;SDS011;3317;43.994;22.878;2023-07-31T03:32:19;9.10;;;8.00;;
6566;SDS011;3317;43.994;22.878;2023-07-31T03:34:46;11.13;;;8.07;;
6566;SDS011;3317;43.994;22.878;2023-07-31T03:37:13;8.20;;;7.33;;
6566;SDS011;3317;43.994;22.878;2023-07-31T03:39:40;9.10;;;7.73;;
6566;SDS011;3317;43.994;22.878;2023-07-31T03:42:08;9.57;;;7.50;;
6566;SDS011;3317;43.994;22.878;2023-07-31T03:44:35;7.90;;;6.80;;
6566;SDS011;3317;43.994;22.878;2023-07-31T03:47:02;7.60;;;6.40;;
6566;SDS011;3317;43.994;22.878;2023-07-31T03:49:29;9.50;;;6.97;;
6566;SDS011;3317;43.994;22.878;2023-07-31T03:51:56;7.33;;;6.50;;
6566;SDS011;3317;43.994;22.878;2023-07-31T03:54:23;8.70;;;6.37;;
6566;SDS011;3317;43.994;22.878;2023-07-31T03:56:50;6.70;;;6.00;;
6566;SDS011;3317;43.994;22.878;2023-07-31T03:59:18;7.43;;;6.30;;
6566;SDS011;3317;43.994;22.878;2023-07-31T04:01:45;7.00;;;6.10;;
6566;SDS011;3317;43.994;22.878;2023-07-31T04:04:12;6.27;;;5.67;;
6566;SDS011;3317;43.994;22.878;2023-07-31T04:06:39;7.17;;;5.90;;
6566;SDS011;3317;43.994;22.878;2023-07-31T04:09:06;7.90;;;5.77;;
6566;SDS011;3317;43.994;22.878;2023-07-31T04:11:33;6.90;;;5.40;;
6566;SDS011;3317;43.994;22.878;2023-07-31T04:14:00;6.13;;;4.57;;
6566;SDS011;3317;43.994;22.878;2023-07-31T04:16:28;7.37;;;5.50;;
6566;SDS011;3317;43.994;22.878;2023-07-31T04:18:55;7.33;;;6.23;;
6566;SDS011;3317;43.994;22.878;2023-07-31T04:21:22;11.93;;;6.17;;
6566;SDS011;3317;43.994;22.878;2023-07-31T04:23:49;9.27;;;5.20;;
6566;SDS011;3317;43.994;22.878;2023-07-31T04:26:16;6.60;;;4.97;;
6566;SDS011;3317;43.994;22.878;2023-07-31T04:28:44;13.47;;;7.00;;
6566;SDS011;3317;43.994;22.878;2023-07-31T04:31:10;11.33;;;6.40;;
6566;SDS011;3317;43.994;22.878;2023-07-31T04:33:39;5.90;;;4.70;;
6566;SDS011;3317;43.994;22.878;2023-07-31T04:36:06;6.10;;;5.10;;
6566;SDS011;3317;43.994;22.878;2023-07-31T04:38:32;6.70;;;4.90;;
6566;SDS011;3317;43.994;22.878;2023-07-31T04:40:59;6.47;;;5.20;;
6566;SDS011;3317;43.994;22.878;2023-07-31T04:43:27;5.07;;;3.93;;
6566;SDS011;3317;43.994;22.878;2023-07-31T04:45:54;7.00;;;4.87;;
6566;SDS011;3317;43.994;22.878;2023-07-31T04:48:21;6.57;;;4.53;;
6566;SDS011;3317;43.994;22.878;2023-07-31T04:50:49;4.80;;;4.30;;
6566;SDS011;3317;43.994;22.878;2023-07-31T04:53:16;5.70;;;4.57;;
6566;SDS011;3317;43.994;22.878;2023-07-31T04:55:43;5.43;;;4.67;;
6566;SDS011;3317;43.994;22.878;2023-07-31T04:58:10;6.30;;;4.43;;
6566;SDS011;3317;43.994;22.878;2023-07-31T05:00:37;6.20;;;4.33;;
6566;SDS011;3317;43.994;22.878;2023-07-31T05:03:04;8.57;;;4.70;;
6566;SDS011;3317;43.994;22.878;2023-07-31T05:05:31;5.33;;;4.77;;
6566;SDS011;3317;43.994;22.878;2023-07-31T05:08:00;6.27;;;4.57;;
6566;SDS011;3317;43.994;22.878;2023-07-31T05:10:27;5.20;;;4.30;;
6566;SDS011;3317;43.994;22.878;2023-07-31T05:12:53;7.70;;;4.83;;
6566;SDS011;3317;43.994;22.878;2023-07-31T05:15:20;4.40;;;4.00;;
6566;SDS011;3317;43.994;22.878;2023-07-31T05:17:47;4.50;;;4.00;;
6566;SDS011;3317;43.994;22.878;2023-07-31T05:20:14;4.80;;;3.83;;
6566;SDS011;3317;43.994;22.878;2023-07-31T05:22:41;5.17;;;4.07;;
6566;SDS011;3317;43.994;22.878;2023-07-31T05:25:09;6.07;;;3.50;;
6566;SDS011;3317;43.994;22.878;2023-07-31T05:27:36;6.03;;;3.50;;
6566;SDS011;3317;43.994;22.878;2023-07-31T05:30:04;3.67;;;3.30;;
6566;SDS011;3317;43.994;22.878;2023-07-31T05:32:33;10.63;;;3.37;;
6566;SDS011;3317;43.994;22.878;2023-07-31T05:35:00;3.33;;;3.00;;
6566;SDS011;3317;43.994;22.878;2023-07-31T05:37:26;5.70;;;3.40;;
6566;SDS011;3317;43.994;22.878;2023-07-31T05:39:53;5.13;;;3.40;;
6566;SDS011;3317;43.994;22.878;2023-07-31T05:42:22;6.73;;;3.20;;
6566;SDS011;3317;43.994;22.878;2023-07-31T05:44:49;3.67;;;3.27;;
6566;SDS011;3317;43.994;22.878;2023-07-31T05:47:16;8.43;;;3.50;;
6566;SDS011;3317;43.994;22.878;2023-07-31T05:49:43;5.20;;;3.80;;
6566;SDS011;3317;43.994;22.878;2023-07-31T05:52:10;5.57;;;3.77;;
6566;SDS011;3317;43.994;22.878;2023-07-31T05:54:37;5.53;;;4.10;;
6566;SDS011;3317;43.994;22.878;2023-07-31T05:57:04;5.30;;;4.03;;
6566;SDS011;3317;43.994;22.878;2023-07-31T05:59:33;6.83;;;3.80;;
6566;SDS011;3317;43.994;22.878;2023-07-31T06:01:59;4.93;;;3.80;;
6566;SDS011;3317;43.994;22.878;2023-07-31T06:04:27;6.77;;;4.10;;
6566;SDS011;3317;43.994;22.878;2023-07-31T06:06:54;4.83;;;3.70;;
6566;SDS011;3317;43.994;22.878;2023-07-31T06:09:21;4.17;;;3.37;;
6566;SDS011;3317;43.994;22.878;2023-07-31T06:11:48;3.97;;;3.50;;
6566;SDS011;3317;43.994;22.878;2023-07-31T06:14:14;3.80;;;3.40;;
6566;SDS011;3317;43.994;22.878;2023-07-31T06:16:43;4.77;;;3.67;;
6566;SDS011;3317;43.994;22.878;2023-07-31T06:19:10;5.40;;;3.70;;
6566;SDS011;3317;43.994;22.878;2023-07-31T06:21:38;4.70;;;3.47;;
6566;SDS011;3317;43.994;22.878;2023-07-31T06:24:08;4.77;;;3.10;;
6566;SDS011;3317;43.994;22.878;2023-07-31T06:26:35;6.10;;;4.00;;
6566;SDS011;3317;43.994;22.878;2023-07-31T06:29:02;3.67;;;2.90;;
6566;SDS011;3317;43.994;22.878;2023-07-31T06:31:29;4.80;;;2.87;;
6566;SDS011;3317;43.994;22.878;2023-07-31T06:33:57;6.77;;;2.90;;
6566;SDS011;3317;43.994;22.878;2023-07-31T06:36:25;4.10;;;2.20;;
6566;SDS011;3317;43.994;22.878;2023-07-31T06:38:52;3.70;;;2.70;;
6566;SDS011;3317;43.994;22.878;2023-07-31T06:41:19;7.80;;;2.40;;
6566;SDS011;3317;43.994;22.878;2023-07-31T06:43:45;8.97;;;2.63;;
6566;SDS011;3317;43.994;22.878;2023-07-31T06:46:13;5.63;;;3.53;;
6566;SDS011;3317;43.994;22.878;2023-07-31T06:48:40;4.40;;;3.23;;
6566;SDS011;3317;43.994;22.878;2023-07-31T06:51:08;5.80;;;3.20;;
6566;SDS011;3317;43.994;22.878;2023-07-31T06:53:35;4.53;;;2.70;;
6566;SDS011;3317;43.994;22.878;2023-07-31T06:56:02;2.87;;;2.43;;
6566;SDS011;3317;43.994;22.878;2023-07-31T06:58:29;3.70;;;2.30;;
6566;SDS011;3317;43.994;22.878;2023-07-31T07:00:56;5.20;;;2.33;;
6566;SDS011;3317;43.994;22.878;2023-07-31T07:03:23;6.37;;;3.00;;
6566;SDS011;3317;43.994;22.878;2023-07-31T07:05:50;3.60;;;2.80;;
6566;SDS011;3317;43.994;22.878;2023-07-31T07:08:18;4.60;;;2.90;;
6566;SDS011;3317;43.994;22.878;2023-07-31T07:10:45;5.70;;;3.00;;
6566;SDS011;3317;43.994;22.878;2023-07-31T07:13:13;4.70;;;2.90;;
6566;SDS011;3317;43.994;22.878;2023-07-31T07:15:40;6.60;;;2.70;;
6566;SDS011;3317;43.994;22.878;2023-07-31T07:18:07;4.20;;;3.23;;
6566;SDS011;3317;43.994;22.878;2023-07-31T07:20:35;4.17;;;2.63;;
6566;SDS011;3317;43.994;22.878;2023-07-31T07:23:02;3.87;;;3.20;;
6566;SDS011;3317;43.994;22.878;2023-07-31T07:25:30;7.10;;;4.87;;
6566;SDS011;3317;43.994;22.878;2023-07-31T07:27:57;3.90;;;3.50;;
6566;SDS011;3317;43.994;22.878;2023-07-31T07:30:24;5.10;;;3.60;;
6566;SDS011;3317;43.994;22.878;2023-07-31T07:32:51;7.73;;;4.53;;
6566;SDS011;3317;43.994;22.878;2023-07-31T07:35:18;6.63;;;4.00;;
6566;SDS011;3317;43.994;22.878;2023-07-31T07:37:45;6.77;;;4.27;;
6566;SDS011;3317;43.994;22.878;2023-07-31T07:40:15;8.13;;;5.00;;
6566;SDS011;3317;43.994;22.878;2023-07-31T07:42:43;5.87;;;4.20;;
6566;SDS011;3317;43.994;22.878;2023-07-31T07:45:10;8.33;;;5.33;;
6566;SDS011;3317;43.994;22.878;2023-07-31T07:47:37;7.37;;;6.03;;
6566;SDS011;3317;43.994;22.878;2023-07-31T07:50:05;6.97;;;5.57;;
6566;SDS011;3317;43.994;22.878;2023-07-31T07:52:33;9.30;;;4.77;;
6566;SDS011;3317;43.994;22.878;2023-07-31T07:55:00;6.43;;;5.40;;
6566;SDS011;3317;43.994;22.878;2023-07-31T07:57:27;7.43;;;5.73;;
6566;SDS011;3317;43.994;22.878;2023-07-31T07:59:55;8.23;;;6.20;;
6566;SDS011;3317;43.994;22.878;2023-07-31T08:02:22;8.57;;;7.20;;
6566;SDS011;3317;43.994;22.878;2023-07-31T08:04:49;9.10;;;7.60;;
6566;SDS011;3317;43.994;22.878;2023-07-31T08:07:16;9.43;;;7.07;;
6566;SDS011;3317;43.994;22.878;2023-07-31T08:09:43;11.50;;;8.30;;
6566;SDS011;3317;43.994;22.878;2023-07-31T08:12:10;11.80;;;9.20;;
6566;SDS011;3317;43.994;22.878;2023-07-31T08:14:36;10.80;;;8.17;;
6566;SDS011;3317;43.994;22.878;2023-07-31T08:17:05;10.07;;;8.33;;
6566;SDS011;3317;43.994;22.878;2023-07-31T08:19:32;11.07;;;8.20;;
6566;SDS011;3317;43.994;22.878;2023-07-31T08:21:59;14.13;;;9.20;;
6566;SDS011;3317;43.994;22.878;2023-07-31T08:24:26;11.50;;;9.33;;
6566;SDS011;3317;43.994;22.878;2023-07-31T08:26:52;13.17;;;8.97;;
6566;SDS011;3317;43.994;22.878;2023-07-31T08:29:19;11.80;;;9.30;;
6566;SDS011;3317;43.994;22.878;2023-07-31T08:31:46;12.70;;;9.50;;
6566;SDS011;3317;43.994;22.878;2023-07-31T08:34:14;12.30;;;8.10;;
6566;SDS011;3317;43.994;22.878;2023-07-31T08:36:41;13.23;;;8.57;;
6566;SDS011;3317;43.994;22.878;2023-07-31T08:39:08;9.90;;;7.73;;
6566;SDS011;3317;43.994;22.878;2023-07-31T08:41:37;8.53;;;7.53;;
6566;SDS011;3317;43.994;22.878;2023-07-31T08:44:05;9.70;;;7.43;;
6566;SDS011;3317;43.994;22.878;2023-07-31T08:46:33;7.97;;;6.87;;
6566;SDS011;3317;43.994;22.878;2023-07-31T08:49:01;8.90;;;7.67;;
6566;SDS011;3317;43.994;22.878;2023-07-31T08:51:31;9.03;;;7.17;;
6566;SDS011;3317;43.994;22.878;2023-07-31T08:54:00;8.60;;;6.93;;
6566;SDS011;3317;43.994;22.878;2023-07-31T08:56:29;11.63;;;7.67;;
6566;SDS011;3317;43.994;22.878;2023-07-31T08:58:57;8.37;;;7.43;;
6566;SDS011;3317;43.994;22.878;2023-07-31T09:01:26;10.50;;;7.30;;
6566;SDS011;3317;43.994;22.878;2023-07-31T09:03:56;8.73;;;7.13;;
6566;SDS011;3317;43.994;22.878;2023-07-31T09:06:25;7.80;;;7.00;;
6566;SDS011;3317;43.994;22.878;2023-07-31T09:08:56;8.40;;;5.77;;
6566;SDS011;3317;43.994;22.878;2023-07-31T09:11:23;6.30;;;5.50;;
6566;SDS011;3317;43.994;22.878;2023-07-31T09:13:52;5.73;;;5.23;;
6566;SDS011;3317;43.994;22.878;2023-07-31T09:16:26;6.00;;;5.37;;
6566;SDS011;3317;43.994;22.878;2023-07-31T09:18:56;7.60;;;4.73;;
6566;SDS011;3317;43.994;22.878;2023-07-31T09:21:23;5.10;;;4.03;;
6566;SDS011;3317;43.994;22.878;2023-07-31T09:23:52;5.20;;;4.70;;
6566;SDS011;3317;43.994;22.878;2023-07-31T09:26:30;5.80;;;5.23;;
6566;SDS011;3317;43.994;22.878;2023-07-31T09:28:58;6.43;;;5.40;;
6566;SDS011;3317;43.994;22.878;2023-07-31T09:31:31;5.10;;;4.60;;
6566;SDS011;3317;43.994;22.878;2023-07-31T09:33:59;4.97;;;4.57;;
6566;SDS011;3317;43.994;22.878;2023-07-31T09:36:28;5.23;;;4.73;;
6566;SDS011;3317;43.994;22.878;2023-07-31T09:38:58;4.70;;;4.30;;
6566;SDS011;3317;43.994;22.878;2023-07-31T09:41:27;3.90;;;3.60;;
6566;SDS011;3317;43.994;22.878;2023-07-31T09:43:56;3.57;;;3.27;;
6566;SDS011;3317;43.994;22.878;2023-07-31T09:46:23;4.30;;;3.40;;
6566;SDS011;3317;43.994;22.878;2023-07-31T09:48:59;5.03;;;3.20;;
6566;SDS011;3317;43.994;22.878;2023-07-31T09:51:34;5.93;;;3.93;;
6566;SDS011;3317;43.994;22.878;2023-07-31T09:54:04;4.00;;;3.60;;
6566;SDS011;3317;43.994;22.878;2023-07-31T09:56:37;4.43;;;3.27;;
6566;SDS011;3317;43.994;22.878;2023-07-31T09:59:08;4.83;;;3.27;;
6566;SDS011;3317;43.994;22.878;2023-07-31T10:01:38;5.23;;;4.00;;
6566;SDS011;3317;43.994;22.878;2023-07-31T10:04:06;4.60;;;3.87;;
6566;SDS011;3317;43.994;22.878;2023-07-31T10:06:35;4.27;;;3.50;;
6566;SDS011;3317;43.994;22.878;2023-07-31T10:09:05;4.20;;;3.63;;
6566;SDS011;3317;43.994;22.878;2023-07-31T10:11:33;4.70;;;3.97;;
6566;SDS011;3317;43.994;22.878;2023-07-31T10:14:04;7.40;;;3.47;;
6566;SDS011;3317;43.994;22.878;2023-07-31T10:16:35;3.60;;;3.00;;
6566;SDS011;3317;43.994;22.878;2023-07-31T10:19:04;3.00;;;2.70;;
6566;SDS011;3317;43.994;22.878;2023-07-31T10:21:33;3.30;;;2.40;;
6566;SDS011;3317;43.994;22.878;2023-07-31T10:24:02;2.70;;;2.50;;
6566;SDS011;3317;43.994;22.878;2023-07-31T10:26:31;2.87;;;2.57;;
6566;SDS011;3317;43.994;22.878;2023-07-31T10:28:58;2.83;;;2.50;;
6566;SDS011;3317;43.994;22.878;2023-07-31T10:31:26;2.40;;;2.20;;
6566;SDS011;3317;43.994;22.878;2023-07-31T10:33:55;4.40;;;2.33;;
6566;SDS011;3317;43.994;22.878;2023-07-31T10:36:24;3.10;;;2.20;;
6566;SDS011;3317;43.994;22.878;2023-07-31T10:38:52;2.30;;;2.10;;
6566;SDS011;3317;43.994;22.878;2023-07-31T10:41:19;2.13;;;1.93;;
6566;SDS011;3317;43.994;22.878;2023-07-31T10:43:46;3.30;;;2.50;;
6566;SDS011;3317;43.994;22.878;2023-07-31T10:46:13;2.70;;;2.50;;
6566;SDS011;3317;43.994;22.878;2023-07-31T10:48:41;3.07;;;2.47;;
6566;SDS011;3317;43.994;22.878;2023-07-31T10:51:10;3.13;;;2.70;;
6566;SDS011;3317;43.994;22.878;2023-07-31T10:53:38;3.80;;;2.50;;
6566;SDS011;3317;43.994;22.878;2023-07-31T10:56:07;3.10;;;2.60;;
6566;SDS011;3317;43.994;22.878;2023-07-31T10:58:35;2.60;;;2.40;;
6566;SDS011;3317;43.994;22.878;2023-07-31T11:01:03;3.77;;;2.23;;
6566;SDS011;3317;43.994;22.878;2023-07-31T11:03:40;3.20;;;2.17;;
6566;SDS011;3317;43.994;22.878;2023-07-31T11:06:10;2.43;;;2.20;;
6566;SDS011;3317;43.994;22.878;2023-07-31T11:08:41;2.83;;;2.37;;
6566;SDS011;3317;43.994;22.878;2023-07-31T11:11:09;3.60;;;2.50;;
6566;SDS011;3317;43.994;22.878;2023-07-31T11:13:41;3.47;;;2.10;;
6566;SDS011;3317;43.994;22.878;2023-07-31T11:16:11;2.60;;;1.80;;
6566;SDS011;3317;43.994;22.878;2023-07-31T11:18:40;5.20;;;2.20;;
6566;SDS011;3317;43.994;22.878;2023-07-31T11:21:07;2.30;;;2.10;;
6566;SDS011;3317;43.994;22.878;2023-07-31T11:23:38;2.13;;;1.93;;
6566;SDS011;3317;43.994;22.878;2023-07-31T11:26:05;5.60;;;1.90;;
6566;SDS011;3317;43.994;22.878;2023-07-31T11:28:33;2.20;;;1.70;;
6566;SDS011;3317;43.994;22.878;2023-07-31T11:31:01;2.97;;;2.07;;
6566;SDS011;3317;43.994;22.878;2023-07-31T11:33:29;1.77;;;1.67;;
6566;SDS011;3317;43.994;22.878;2023-07-31T11:35:56;2.17;;;1.90;;
6566;SDS011;3317;43.994;22.878;2023-07-31T11:38:26;3.73;;;1.80;;
6566;SDS011;3317;43.994;22.878;2023-07-31T11:40:55;3.10;;;2.00;;
6566;SDS011;3317;43.994;22.878;2023-07-31T11:43:23;2.37;;;2.17;;
6566;SDS011;3317;43.994;22.878;2023-07-31T11:45:52;2.27;;;1.93;;
6566;SDS011;3317;43.994;22.878;2023-07-31T11:48:20;2.30;;;2.10;;
6566;SDS011;3317;43.994;22.878;2023-07-31T11:50:48;6.67;;;2.40;;
6566;SDS011;3317;43.994;22.878;2023-07-31T11:53:17;2.30;;;2.10;;
6566;SDS011;3317;43.994;22.878;2023-07-31T11:55:49;3.13;;;2.27;;
6566;SDS011;3317;43.994;22.878;2023-07-31T11:58:16;2.43;;;2.10;;
6566;SDS011;3317;43.994;22.878;2023-07-31T12:00:45;2.80;;;2.17;;
6566;SDS011;3317;43.994;22.878;2023-07-31T12:03:12;2.20;;;2.00;;
6566;SDS011;3317;43.994;22.878;2023-07-31T12:05:40;2.90;;;2.20;;
6566;SDS011;3317;43.994;22.878;2023-07-31T12:08:09;4.10;;;2.00;;
6566;SDS011;3317;43.994;22.878;2023-07-31T12:10:38;2.80;;;2.10;;
6566;SDS011;3317;43.994;22.878;2023-07-31T12:13:07;2.23;;;2.03;;
6566;SDS011;3317;43.994;22.878;2023-07-31T12:15:38;2.10;;;1.90;;
6566;SDS011;3317;43.994;22.878;2023-07-31T12:18:07;4.40;;;2.50;;
6566;SDS011;3317;43.994;22.878;2023-07-31T12:20:39;2.93;;;2.60;;
6566;SDS011;3317;43.994;22.878;2023-07-31T12:23:12;2.30;;;2.10;;
6566;SDS011;3317;43.994;22.878;2023-07-31T12:25:40;2.90;;;2.60;;
6566;SDS011;3317;43.994;22.878;2023-07-31T12:28:10;4.53;;;2.47;;
6566;SDS011;3317;43.994;22.878;2023-07-31T12:30:40;3.10;;;2.70;;
6566;SDS011;3317;43.994;22.878;2023-07-31T12:33:12;6.70;;;2.77;;
6566;SDS011;3317;43.994;22.878;2023-07-31T12:35:41;3.20;;;2.70;;
6566;SDS011;3317;43.994;22.878;2023-07-31T12:38:09;3.20;;;2.90;;
6566;SDS011;3317;43.994;22.878;2023-07-31T12:40:37;3.70;;;2.70;;
6566;SDS011;3317;43.994;22.878;2023-07-31T12:43:05;3.10;;;2.80;;
6566;SDS011;3317;43.994;22.878;2023-07-31T12:45:33;9.33;;;2.70;;
6566;SDS011;3317;43.994;22.878;2023-07-31T12:48:01;3.40;;;2.43;;
6566;SDS011;3317;43.994;22.878;2023-07-31T12:50:28;2.87;;;2.23;;
6566;SDS011;3317;43.994;22.878;2023-07-31T12:52:55;3.87;;;2.33;;
6566;SDS011;3317;43.994;22.878;2023-07-31T12:55:23;2.53;;;2.13;;
6566;SDS011;3317;43.994;22.878;2023-07-31T12:57:50;2.30;;;2.10;;
6566;SDS011;3317;43.994;22.878;2023-07-31T13:00:17;4.97;;;2.60;;
6566;SDS011;3317;43.994;22.878;2023-07-31T13:02:46;3.47;;;2.70;;
6566;SDS011;3317;43.994;22.878;2023-07-31T13:05:13;2.87;;;2.30;;
6566;SDS011;3317;43.994;22.878;2023-07-31T13:07:40;2.50;;;1.87;;
6566;SDS011;3317;43.994;22.878;2023-07-31T13:10:07;2.30;;;2.10;;
6566;SDS011;3317;43.994;22.878;2023-07-31T13:12:35;2.80;;;2.50;;
6566;SDS011;3317;43.994;22.878;2023-07-31T13:15:01;2.80;;;2.07;;
6566;SDS011;3317;43.994;22.878;2023-07-31T13:17:29;2.43;;;2.23;;
6566;SDS011;3317;43.994;22.878;2023-07-31T13:19:57;3.30;;;3.00;;
6566;SDS011;3317;43.994;22.878;2023-07-31T13:22:24;5.20;;;3.00;;
6566;SDS011;3317;43.994;22.878;2023-07-31T13:24:51;2.80;;;2.47;;
6566;SDS011;3317;43.994;22.878;2023-07-31T13:27:18;2.90;;;2.00;;
6566;SDS011;3317;43.994;22.878;2023-07-31T13:29:46;2.57;;;1.77;;
6566;SDS011;3317;43.994;22.878;2023-07-31T13:32:13;3.00;;;2.00;;
6566;SDS011;3317;43.994;22.878;2023-07-31T13:34:40;2.77;;;2.27;;
6566;SDS011;3317;43.994;22.878;2023-07-31T13:37:09;3.60;;;2.50;;
6566;SDS011;3317;43.994;22.878;2023-07-31T13:39:36;2.50;;;2.30;;
6566;SDS011;3317;43.994;22.878;2023-07-31T13:42:03;3.50;;;2.43;;
6566;SDS011;3317;43.994;22.878;2023-07-31T13:44:31;5.30;;;2.87;;
6566;SDS011;3317;43.994;22.878;2023-07-31T13:46:59;3.50;;;2.63;;
6566;SDS011;3317;43.994;22.878;2023-07-31T13:49:26;2.70;;;2.47;;
6566;SDS011;3317;43.994;22.878;2023-07-31T13:51:53;2.53;;;2.27;;
6566;SDS011;3317;43.994;22.878;2023-07-31T13:54:21;6.33;;;2.17;;
6566;SDS011;3317;43.994;22.878;2023-07-31T13:56:49;3.10;;;2.50;;
6566;SDS011;3317;43.994;22.878;2023-07-31T13:59:15;2.40;;;2.10;;
6566;SDS011;3317;43.994;22.878;2023-07-31T14:01:43;2.57;;;2.17;;
6566;SDS011;3317;43.994;22.878;2023-07-31T14:04:10;2.93;;;2.40;;
6566;SDS011;3317;43.994;22.878;2023-07-31T14:06:37;3.40;;;2.33;;
6566;SDS011;3317;43.994;22.878;2023-07-31T14:09:04;4.53;;;2.40;;
6566;SDS011;3317;43.994;22.878;2023-07-31T14:11:33;3.13;;;2.30;;
6566;SDS011;3317;43.994;22.878;2023-07-31T14:14:00;2.70;;;2.20;;
6566;SDS011;3317;43.994;22.878;2023-07-31T14:16:28;4.23;;;2.43;;
6566;SDS011;3317;43.994;22.878;2023-07-31T14:18:55;2.40;;;2.13;;
6566;SDS011;3317;43.994;22.878;2023-07-31T14:21:24;2.50;;;2.30;;
6566;SDS011;3317;43.994;22.878;2023-07-31T14:23:51;2.63;;;2.43;;
6566;SDS011;3317;43.994;22.878;2023-07-31T14:26:18;2.33;;;2.10;;
6566;SDS011;3317;43.994;22.878;2023-07-31T14:28:46;3.70;;;2.40;;
6566;SDS011;3317;43.994;22.878;2023-07-31T14:31:13;3.37;;;3.07;;
6566;SDS011;3317;43.994;22.878;2023-07-31T14:33:40;2.80;;;2.10;;
6566;SDS011;3317;43.994;22.878;2023-07-31T14:36:07;5.60;;;2.53;;
6566;SDS011;3317;43.994;22.878;2023-07-31T14:38:34;4.23;;;2.87;;
6566;SDS011;3317;43.994;22.878;2023-07-31T14:41:01;3.10;;;2.50;;
6566;SDS011;3317;43.994;22.878;2023-07-31T14:43:28;3.80;;;2.90;;
6566;SDS011;3317;43.994;22.878;2023-07-31T14:45:56;3.50;;;2.23;;
6566;SDS011;3317;43.994;22.878;2023-07-31T14:48:25;2.50;;;2.20;;
6566;SDS011;3317;43.994;22.878;2023-07-31T14:50:52;4.53;;;2.50;;
6566;SDS011;3317;43.994;22.878;2023-07-31T14:53:19;2.63;;;2.40;;
6566;SDS011;3317;43.994;22.878;2023-07-31T14:55:46;6.50;;;2.13;;
6566;SDS011;3317;43.994;22.878;2023-07-31T14:58:13;3.03;;;2.30;;
6566;SDS011;3317;43.994;22.878;2023-07-31T15:00:40;5.43;;;2.37;;
6566;SDS011;3317;43.994;22.878;2023-07-31T15:03:08;3.70;;;2.40;;